(°C)
20°
19°
18°
17°
16°
15°
15°
(°C)
18°
18°
18°
17°
16°
15°
15°
J
J
J
J
J
J
J
(km/h)
10-17
7-16
5-15
4-13
4-12
3-10
3-7
(mm)
0
0
0
0
0
0
0
(%)
0
0
0
0
0
0
0

Sluneční výška

/ -1.6°
sun-icon
UV 3
08:24
19:12
Poslední čtvrť (266°)
00:01
15:20

METAR pro Alcantarilla (LERI)

Čas Podmínky Teplota/
Rosný bod
Vítr Viditelnost Počasí Oblaky Tlak Změna Nezpracované
VFR 20°C / 13°C 170º variable 150º to 230º 7kt >10km - Few Clouds 5200ft 1016 No Significant change LERI 281700Z 17007KT 150V230 9999 FEW052 20/13 Q1016 NOSIG
VFR 20°C / 12°C 160º 9kt >10km - Few Clouds 4500ft 1015 No Significant change LERI 281630Z 16009KT 9999 FEW045 20/12 Q1015 NOSIG
VFR 21°C / 12°C 150º variable 110º to 170º 10kt >10km - Few Clouds 4200ft 1015 No Significant change LERI 281600Z 15010KT 110V170 9999 FEW042 21/12 Q1015 NOSIG
VFR 22°C / 12°C 150º 9kt >10km - Few Clouds 3800ft 1015 No Significant change LERI 281530Z 15009KT 9999 FEW038 22/12 Q1015 NOSIG
VFR 23°C / 12°C 160º 9kt >10km - Few Clouds 3800ft 1016 No Significant change LERI 281500Z 16009KT 9999 FEW038 23/12 Q1016 NOSIG
VFR 23°C / 12°C 120º variable 060º to 160º 4kt >10km - Few Clouds 3800ft 1016 No Significant change LERI 281430Z 12004KT 060V160 9999 FEW038 23/12 Q1016 NOSIG
VFR 23°C / 11°C variable 1kt >10km - Few Clouds 3500ft 1016 No Significant change LERI 281400Z VRB01KT 9999 FEW035 23/11 Q1016 NOSIG
VFR 23°C / 11°C 210º 1kt >10km - Few Clouds 3400ft 1017 No Significant change LERI 281330Z 21001KT 9999 FEW034 23/11 Q1017 NOSIG
VFR 23°C / 10°C variable 2kt >10km - Few Clouds 3200ft 1017 No Significant change LERI 281300Z VRB02KT 9999 FEW032 23/10 Q1017 NOSIG
VFR 23°C / 10°C 170º 1kt >10km - Few Clouds 3000ft 1017 No Significant change LERI 281230Z 17001KT 9999 FEW030 23/10 Q1017 NOSIG
VFR 22°C / 12°C variable 3kt >10km - Few Clouds 3000ft 1018 No Significant change LERI 281200Z VRB03KT 9999 FEW030 22/12 Q1018 NOSIG
VFR 21°C / 13°C variable 2kt >10km - Few Clouds 3200ft 1018 No Significant change LERI 281130Z VRB02KT 9999 FEW032 21/13 Q1018 NOSIG
VFR 20°C / 12°C variable 2kt >10km - Few Clouds 3200ft 1019 No Significant change LERI 281100Z VRB02KT 9999 FEW032 20/12 Q1019 NOSIG
VFR 18°C / 12°C variable 2kt >10km - Few Clouds 3000ft 1019 No Significant change LERI 281030Z VRB02KT 9999 FEW030 18/12 Q1019 NOSIG
VFR 18°C / 12°C variable 1kt >10km - Few Clouds 3000ft 1019 No Significant change LERI 281000Z VRB01KT 9999 FEW030 18/12 Q1019 NOSIG
VFR 17°C / 11°C variable 1kt >10km - Few Clouds 3000ft 1019 No Significant change LERI 280930Z VRB01KT 9999 FEW030 17/11 Q1019 NOSIG
VFR 15°C / 12°C 130º variable 080º to 170º 3kt >10km - Few Clouds 3300ft 1020 No Significant change LERI 280900Z 13003KT 080V170 9999 FEW033 15/12 Q1020 NOSIG
VFR 14°C / 12°C variable 2kt >10km - Clouds and Visibility OK 1019 No Significant change LERI 280830Z VRB02KT CAVOK 14/12 Q1019 NOSIG
VFR 13°C / 12°C variable 0kt >10km - Clouds and Visibility OK 1019 No Significant change LERI 280800Z 00000KT CAVOK 13/12 Q1019 NOSIG
VFR 12°C / 11°C variable 0kt >10km - Clouds and Visibility OK 1019 No Significant change LERI 280730Z 00000KT CAVOK 12/11 Q1019 NOSIG
VFR 11°C / 10°C 240º 2kt >10km - Clouds and Visibility OK 1019 No Significant change LERI 280700Z 24002KT CAVOK 11/10 Q1019 NOSIG
VFR 10°C / 10°C 240º 2kt >10km - Clouds and Visibility OK 1019 No Significant change LERI 280630Z 24002KT CAVOK 10/10 Q1019 NOSIG
VFR 11°C / 10°C 220º 4kt >10km - Few Clouds 3600ft 1019 No Significant change LERI 280600Z 22004KT 9999 FEW036 11/10 Q1019 NOSIG
VFR 18°C / 12°C 110º variable 070º to 130º 5kt >10km - Few Clouds 4600ft 1020 No Significant change LERI 271800Z 11005KT 070V130 9999 FEW046 18/12 Q1020 NOSIG

VFR

20°C / 13°C

[Víc]
Vítr 170º variable 150º to 230º 7kt
Viditelnost >10km
Počasí -
Oblaky Few Clouds 5200ft
Tlak 1016
Změna No Significant change
Nezpracované LERI 281700Z 17007KT 150V230 9999 FEW052 20/13 Q1016 NOSIG

VFR

20°C / 12°C

[Víc]
Vítr 160º 9kt
Viditelnost >10km
Počasí -
Oblaky Few Clouds 4500ft
Tlak 1015
Změna No Significant change
Nezpracované LERI 281630Z 16009KT 9999 FEW045 20/12 Q1015 NOSIG

VFR

21°C / 12°C

[Víc]
Vítr 150º variable 110º to 170º 10kt
Viditelnost >10km
Počasí -
Oblaky Few Clouds 4200ft
Tlak 1015
Změna No Significant change
Nezpracované LERI 281600Z 15010KT 110V170 9999 FEW042 21/12 Q1015 NOSIG

VFR

22°C / 12°C

[Víc]
Vítr 150º 9kt
Viditelnost >10km
Počasí -
Oblaky Few Clouds 3800ft
Tlak 1015
Změna No Significant change
Nezpracované LERI 281530Z 15009KT 9999 FEW038 22/12 Q1015 NOSIG

VFR

23°C / 12°C

[Víc]
Vítr 160º 9kt
Viditelnost >10km
Počasí -
Oblaky Few Clouds 3800ft
Tlak 1016
Změna No Significant change
Nezpracované LERI 281500Z 16009KT 9999 FEW038 23/12 Q1016 NOSIG

VFR

23°C / 12°C

[Víc]
Vítr 120º variable 060º to 160º 4kt
Viditelnost >10km
Počasí -
Oblaky Few Clouds 3800ft
Tlak 1016
Změna No Significant change
Nezpracované LERI 281430Z 12004KT 060V160 9999 FEW038 23/12 Q1016 NOSIG

VFR

23°C / 11°C

[Víc]
Vítr variable 1kt
Viditelnost >10km
Počasí -
Oblaky Few Clouds 3500ft
Tlak 1016
Změna No Significant change
Nezpracované LERI 281400Z VRB01KT 9999 FEW035 23/11 Q1016 NOSIG

VFR

23°C / 11°C

[Víc]
Vítr 210º 1kt
Viditelnost >10km
Počasí -
Oblaky Few Clouds 3400ft
Tlak 1017
Změna No Significant change
Nezpracované LERI 281330Z 21001KT 9999 FEW034 23/11 Q1017 NOSIG

VFR

23°C / 10°C

[Víc]
Vítr variable 2kt
Viditelnost >10km
Počasí -
Oblaky Few Clouds 3200ft
Tlak 1017
Změna No Significant change
Nezpracované LERI 281300Z VRB02KT 9999 FEW032 23/10 Q1017 NOSIG

VFR

23°C / 10°C

[Víc]
Vítr 170º 1kt
Viditelnost >10km
Počasí -
Oblaky Few Clouds 3000ft
Tlak 1017
Změna No Significant change
Nezpracované LERI 281230Z 17001KT 9999 FEW030 23/10 Q1017 NOSIG

VFR

22°C / 12°C

[Víc]
Vítr variable 3kt
Viditelnost >10km
Počasí -
Oblaky Few Clouds 3000ft
Tlak 1018
Změna No Significant change
Nezpracované LERI 281200Z VRB03KT 9999 FEW030 22/12 Q1018 NOSIG

VFR

21°C / 13°C

[Víc]
Vítr variable 2kt
Viditelnost >10km
Počasí -
Oblaky Few Clouds 3200ft
Tlak 1018
Změna No Significant change
Nezpracované LERI 281130Z VRB02KT 9999 FEW032 21/13 Q1018 NOSIG

VFR

20°C / 12°C

[Víc]
Vítr variable 2kt
Viditelnost >10km
Počasí -
Oblaky Few Clouds 3200ft
Tlak 1019
Změna No Significant change
Nezpracované LERI 281100Z VRB02KT 9999 FEW032 20/12 Q1019 NOSIG

VFR

18°C / 12°C

[Víc]
Vítr variable 2kt
Viditelnost >10km
Počasí -
Oblaky Few Clouds 3000ft
Tlak 1019
Změna No Significant change
Nezpracované LERI 281030Z VRB02KT 9999 FEW030 18/12 Q1019 NOSIG

VFR

18°C / 12°C

[Víc]
Vítr variable 1kt
Viditelnost >10km
Počasí -
Oblaky Few Clouds 3000ft
Tlak 1019
Změna No Significant change
Nezpracované LERI 281000Z VRB01KT 9999 FEW030 18/12 Q1019 NOSIG

VFR

17°C / 11°C

[Víc]
Vítr variable 1kt
Viditelnost >10km
Počasí -
Oblaky Few Clouds 3000ft
Tlak 1019
Změna No Significant change
Nezpracované LERI 280930Z VRB01KT 9999 FEW030 17/11 Q1019 NOSIG

VFR

15°C / 12°C

[Víc]
Vítr 130º variable 080º to 170º 3kt
Viditelnost >10km
Počasí -
Oblaky Few Clouds 3300ft
Tlak 1020
Změna No Significant change
Nezpracované LERI 280900Z 13003KT 080V170 9999 FEW033 15/12 Q1020 NOSIG

VFR

14°C / 12°C

[Víc]
Vítr variable 2kt
Viditelnost >10km
Počasí -
Oblaky Clouds and Visibility OK
Tlak 1019
Změna No Significant change
Nezpracované LERI 280830Z VRB02KT CAVOK 14/12 Q1019 NOSIG

VFR

13°C / 12°C

[Víc]
Vítr variable 0kt
Viditelnost >10km
Počasí -
Oblaky Clouds and Visibility OK
Tlak 1019
Změna No Significant change
Nezpracované LERI 280800Z 00000KT CAVOK 13/12 Q1019 NOSIG

VFR

12°C / 11°C

[Víc]
Vítr variable 0kt
Viditelnost >10km
Počasí -
Oblaky Clouds and Visibility OK
Tlak 1019
Změna No Significant change
Nezpracované LERI 280730Z 00000KT CAVOK 12/11 Q1019 NOSIG

VFR

11°C / 10°C

[Víc]
Vítr 240º 2kt
Viditelnost >10km
Počasí -
Oblaky Clouds and Visibility OK
Tlak 1019
Změna No Significant change
Nezpracované LERI 280700Z 24002KT CAVOK 11/10 Q1019 NOSIG

VFR

10°C / 10°C

[Víc]
Vítr 240º 2kt
Viditelnost >10km
Počasí -
Oblaky Clouds and Visibility OK
Tlak 1019
Změna No Significant change
Nezpracované LERI 280630Z 24002KT CAVOK 10/10 Q1019 NOSIG

VFR

11°C / 10°C

[Víc]
Vítr 220º 4kt
Viditelnost >10km
Počasí -
Oblaky Few Clouds 3600ft
Tlak 1019
Změna No Significant change
Nezpracované LERI 280600Z 22004KT 9999 FEW036 11/10 Q1019 NOSIG

VFR

18°C / 12°C

[Víc]
Vítr 110º variable 070º to 130º 5kt
Viditelnost >10km
Počasí -
Oblaky Few Clouds 4600ft
Tlak 1020
Změna No Significant change
Nezpracované LERI 271800Z 11005KT 070V130 9999 FEW046 18/12 Q1020 NOSIG

TAF pro Alcantarilla (LERI)

From till


Maximum Temperature 24ºC on . Minimum Temperature 10ºC on .
From till Wind variable 3kt. Visibility 10km or more. Few Clouds 3500ft.
With 40% probability, Temporarly from till Wind 180º 10kt.

Nezpracované: TAF LERI 281100Z 2812/2912 VRB03KT 9999 FEW035 TX24/2814Z TN10/2906Z PROB40 TEMPO 2814/2819 18010KT

Aktuální snímky ze satelitu a srážky pro Alcantarilla, Španělsko

Značka polohy je umístěna na Alcantarilla. [Víc]

Satelitní snímek v reálném čase kombinuje viditelné světlo během dne s infračerveným zářením během noci. V noci není obraz tmavý, protože infračervené záření dokáže detekovat teplotní rozdíly. Nízká oblačnost a mlha se bohužel těžko odlišují od pozemních teplot, a proto mohou být během noci téměř neviditelné. Satelitní snímky z Meteosatu pro Evropu jsou aktualizovány v reálném čase každých 5 minut. Snímky z GOES-16/GOES-17 (Severní a Jižní Amerika) a Himawari (Asie) jsou aktualizovány) každých 10 minut.

Srážky jsou odhadované na základě radaru a satelitů. V noci jsou odhady srážek ze satelitů méně přesné než během dne. Oranžové křížky označují místa, kde byl zaznamenán blesk (za Evropa).

Copyright 2021 EUMETSAT / meteoblue. Údaje o blescích poskytuje nowcast.

Radar pro Alcantarilla

Mrholení
Slabé
Střední
Silné
Velmi silné
Kroupy

Značka lokality je umístněna na Alcantarilla. Singular: Tato animace ukazuje srážky zaznamenané radarem za poslední 1 hodinu. Mrholení nebo slabé sněžení může být pro radar neviditelné. Intenzita srážek je barevně označena od světle modré po oranžovou.
Radar data source: AEMET.